createdAt,value
2019-02-23T00:00:13.303Z,57.48
2019-02-23T00:02:41.559Z,57.76
2019-02-23T00:05:09.818Z,58.13
2019-02-23T00:07:38.084Z,58.01
2019-02-23T00:10:07.781Z,57.33
2019-02-23T00:12:36.068Z,58.00
2019-02-23T00:15:05.931Z,58.00
2019-02-23T00:17:34.218Z,57.87
2019-02-23T00:20:02.519Z,57.99
2019-02-23T00:22:30.781Z,57.63
2019-02-23T00:24:59.036Z,57.78
2019-02-23T00:27:27.352Z,57.50
2019-02-23T00:29:55.610Z,57.36
2019-02-23T00:32:23.869Z,57.43
2019-02-23T00:34:52.167Z,57.78
2019-02-23T00:37:20.431Z,57.97
2019-02-23T00:39:48.721Z,57.92
2019-02-23T00:42:16.973Z,58.02
2019-02-23T00:44:45.244Z,58.22
2019-02-23T00:47:13.514Z,58.80
2019-02-23T00:49:41.781Z,58.53
2019-02-23T00:52:10.051Z,58.39
2019-02-23T00:54:38.300Z,58.32
2019-02-23T00:57:06.592Z,58.52
2019-02-23T00:59:34.846Z,58.23
2019-02-23T01:02:03.139Z,58.91
2019-02-23T01:04:31.386Z,58.93
2019-02-23T01:06:59.641Z,58.65
2019-02-23T01:09:27.932Z,58.47
2019-02-23T01:11:56.250Z,58.61
2019-02-23T01:14:24.507Z,58.77
2019-02-23T01:16:52.763Z,59.54
2019-02-23T01:19:21.041Z,59.04
2019-02-23T01:21:49.291Z,59.56
2019-02-23T01:24:17.577Z,59.97
2019-02-23T01:26:45.835Z,59.74
2019-02-23T01:29:14.141Z,59.80
2019-02-23T01:31:42.392Z,59.63
2019-02-23T01:34:10.714Z,59.73
2019-02-23T01:36:38.963Z,59.74
2019-02-23T01:39:07.222Z,60.51
2019-02-23T01:41:35.511Z,60.58
2019-02-23T01:44:03.776Z,60.52
2019-02-23T01:46:32.047Z,59.91
2019-02-23T01:49:00.302Z,59.98
2019-02-23T01:51:28.564Z,60.39
2019-02-23T01:53:56.853Z,60.16
2019-02-23T01:56:25.124Z,60.25
2019-02-23T01:58:53.386Z,60.36
2019-02-23T02:01:21.692Z,60.39
2019-02-23T02:03:49.935Z,60.33
2019-02-23T02:06:18.283Z,60.95
2019-02-23T02:08:47.052Z,60.48
2019-02-23T02:11:15.783Z,61.03
2019-02-23T02:13:44.043Z,60.53
2019-02-23T02:16:12.354Z,60.91
2019-02-23T02:18:40.605Z,60.76
2019-02-23T02:21:08.858Z,60.87
2019-02-23T02:23:37.147Z,60.92
2019-02-23T02:26:05.419Z,61.01
2019-02-23T02:28:33.686Z,61.39
2019-02-23T02:31:01.974Z,61.31
2019-02-23T02:33:30.230Z,60.89
2019-02-23T02:35:58.519Z,60.71
2019-02-23T02:38:26.816Z,60.97
2019-02-23T02:40:55.072Z,61.38
2019-02-23T02:43:23.364Z,61.39
2019-02-23T02:45:51.612Z,62.35
2019-02-23T02:48:19.903Z,61.33
2019-02-23T02:50:48.237Z,61.43
2019-02-23T02:53:16.492Z,61.44
2019-02-23T02:55:44.756Z,61.45
2019-02-23T02:58:13.039Z,61.66
2019-02-23T03:00:41.291Z,61.58
2019-02-23T03:03:09.582Z,61.68
2019-02-23T03:05:37.869Z,61.52
2019-02-23T03:08:06.194Z,61.71
2019-02-23T03:10:34.498Z,62.54
2019-02-23T03:13:02.901Z,61.85
2019-02-23T03:15:31.183Z,62.56
2019-02-23T03:17:59.443Z,61.72
2019-02-23T03:20:36.370Z,61.87
2019-02-23T03:22:57.702Z,61.97
2019-02-23T03:25:25.984Z,61.74
2019-02-23T03:27:54.275Z,61.77
2019-02-23T03:30:22.525Z,62.12
2019-02-23T03:32:50.817Z,62.41
2019-02-23T03:35:19.100Z,61.84
2019-02-23T03:37:47.403Z,61.72
2019-02-23T03:40:15.742Z,62.05
2019-02-23T03:42:43.999Z,62.23
2019-02-23T03:45:12.264Z,61.90
2019-02-23T03:47:40.557Z,62.31
2019-02-23T03:50:08.848Z,62.06
2019-02-23T03:52:37.083Z,62.91
2019-02-23T03:55:05.642Z,62.55
2019-02-23T03:57:33.909Z,62.53
2019-02-23T04:00:02.195Z,63.72
2019-02-23T04:02:30.452Z,62.53
2019-02-23T04:04:58.727Z,62.85
2019-02-23T04:07:26.990Z,63.10
2019-02-23T04:09:55.300Z,62.95
2019-02-23T04:12:23.555Z,62.76
2019-02-23T04:14:51.809Z,63.07
2019-02-23T04:17:20.100Z,64.12
2019-02-23T04:19:48.350Z,63.72
2019-02-23T04:22:16.621Z,63.12
2019-02-23T04:24:44.880Z,63.43
2019-02-23T04:27:13.173Z,63.11
2019-02-23T04:29:41.424Z,63.09
2019-02-23T04:32:09.720Z,63.32
2019-02-23T04:34:37.978Z,63.63
2019-02-23T04:37:06.223Z,63.07
2019-02-23T04:39:34.511Z,63.29
2019-02-23T04:42:02.763Z,63.44
2019-02-23T04:44:31.038Z,64.02
2019-02-23T04:46:59.286Z,64.09
2019-02-23T04:49:27.576Z,63.65
2019-02-23T04:51:55.867Z,64.35
2019-02-23T04:54:24.120Z,63.89
2019-02-23T04:56:52.415Z,63.82
2019-02-23T04:59:20.710Z,63.71
2019-02-23T05:01:49.000Z,63.73
2019-02-23T05:04:17.251Z,64.01
2019-02-23T05:06:45.591Z,64.42
2019-02-23T05:09:13.836Z,64.25
2019-02-23T05:11:42.123Z,64.10
2019-02-23T05:14:10.376Z,64.19
2019-02-23T05:16:38.707Z,64.39
2019-02-23T05:19:06.975Z,64.35
2019-02-23T05:21:35.226Z,64.06
2019-02-23T05:24:03.534Z,64.01
2019-02-23T05:26:31.798Z,63.86
2019-02-23T05:29:00.043Z,64.05
2019-02-23T05:31:28.328Z,64.40
2019-02-23T05:33:56.613Z,64.95
2019-02-23T05:36:24.862Z,64.72
2019-02-23T05:38:53.158Z,64.56
2019-02-23T05:41:21.447Z,64.50
2019-02-23T05:43:49.753Z,64.54
2019-02-23T05:46:18.005Z,64.49
2019-02-23T05:48:46.257Z,64.58
2019-02-23T05:51:15.106Z,64.70
2019-02-23T05:53:43.373Z,64.98
2019-02-23T05:56:15.989Z,64.84
2019-02-23T05:58:41.660Z,65.09
2019-02-23T06:01:09.916Z,65.22
2019-02-23T06:03:38.171Z,65.46
2019-02-23T06:06:06.473Z,65.07
2019-02-23T06:08:34.746Z,65.07
2019-02-23T06:11:03.048Z,65.05
2019-02-23T06:13:31.506Z,65.12
2019-02-23T06:15:59.761Z,65.04
2019-02-23T06:18:28.023Z,65.02
2019-02-23T06:20:56.470Z,65.80
2019-02-23T06:23:24.715Z,65.17
2019-02-23T06:25:52.980Z,65.20
2019-02-23T06:28:21.279Z,65.16
2019-02-23T06:30:49.536Z,64.81
2019-02-23T06:33:17.900Z,65.12
2019-02-23T06:35:46.162Z,65.12
2019-02-23T06:38:14.459Z,64.77
2019-02-23T06:40:42.724Z,64.76
2019-02-23T06:43:10.973Z,65.25
2019-02-23T06:45:39.273Z,64.86
2019-02-23T06:48:07.551Z,65.13
2019-02-23T06:50:35.849Z,65.36
2019-02-23T06:53:04.153Z,65.93
2019-02-23T06:55:32.526Z,65.47
2019-02-23T06:58:00.816Z,65.58
2019-02-23T07:00:29.077Z,65.11
2019-02-23T07:02:57.366Z,65.56
2019-02-23T07:05:25.630Z,65.52
2019-02-23T07:07:53.950Z,64.95
2019-02-23T07:10:22.210Z,65.20
2019-02-23T07:12:50.467Z,64.68
2019-02-23T07:15:18.763Z,65.34
2019-02-23T07:17:47.024Z,64.33
2019-02-23T07:20:15.274Z,64.90
2019-02-23T07:22:43.541Z,64.42
2019-02-23T07:25:11.791Z,64.51
2019-02-23T07:27:40.077Z,64.21
2019-02-23T07:30:13.817Z,63.42
2019-02-23T07:32:42.110Z,63.42
2019-02-23T07:35:10.454Z,63.33
2019-02-23T07:37:38.721Z,63.76
2019-02-23T07:40:12.419Z,63.09
2019-02-23T07:42:40.687Z,62.79
2019-02-23T07:45:10.194Z,63.01
2019-02-23T07:47:38.483Z,62.19
2019-02-23T07:50:12.460Z,62.52
2019-02-23T07:52:40.730Z,62.07
2019-02-23T07:55:08.985Z,61.66
2019-02-23T07:57:37.252Z,61.40
2019-02-23T08:00:08.888Z,61.04
2019-02-23T08:02:37.179Z,60.92
2019-02-23T08:05:08.417Z,60.49
2019-02-23T08:07:36.741Z,60.29
2019-02-23T08:10:08.435Z,60.31
2019-02-23T08:12:36.701Z,59.94
2019-02-23T08:15:07.629Z,60.15
2019-02-23T08:17:35.886Z,59.75
2019-02-23T08:20:06.712Z,59.90
2019-02-23T08:22:37.522Z,59.47
2019-02-23T08:25:07.824Z,58.84
2019-02-23T08:27:36.084Z,58.99
2019-02-23T08:30:06.376Z,58.81
2019-02-23T08:32:34.630Z,58.54
2019-02-23T08:35:02.898Z,58.76
2019-02-23T08:37:31.163Z,58.41
2019-02-23T08:39:59.423Z,57.73
2019-02-23T08:42:27.710Z,58.13
2019-02-23T08:44:55.965Z,57.71
2019-02-23T08:47:24.273Z,57.24
2019-02-23T08:49:52.549Z,56.49
2019-02-23T08:52:20.807Z,56.43
2019-02-23T08:54:49.544Z,56.91
2019-02-23T08:57:18.171Z,56.17
2019-02-23T08:59:46.612Z,56.46
2019-02-23T09:02:15.115Z,56.57
2019-02-23T09:04:48.188Z,56.05
2019-02-23T09:07:16.551Z,55.62
2019-02-23T09:09:44.823Z,57.28
2019-02-23T09:12:13.244Z,55.75
2019-02-23T09:14:41.799Z,51.21
2019-02-23T09:17:10.382Z,50.97
2019-02-23T09:19:38.670Z,49.35
2019-02-23T09:22:07.063Z,48.16
2019-02-23T09:24:35.383Z,45.09
2019-02-23T09:27:03.665Z,44.46
2019-02-23T09:29:31.945Z,41.16
2019-02-23T09:32:00.217Z,38.75
2019-02-23T09:34:28.500Z,36.03
2019-02-23T09:36:56.752Z,31.64
2019-02-23T09:39:25.042Z,32.12
2019-02-23T09:41:53.297Z,30.86
2019-02-23T09:44:21.561Z,30.48
2019-02-23T09:46:49.835Z,30.04
2019-02-23T09:49:18.120Z,27.61
2019-02-23T09:51:46.403Z,28.18
2019-02-23T09:54:14.658Z,27.57
2019-02-23T09:56:42.930Z,25.97
2019-02-23T09:59:11.186Z,26.31
2019-02-23T10:01:39.483Z,25.41
2019-02-23T10:04:07.737Z,24.05
2019-02-23T10:06:36.022Z,23.94
2019-02-23T10:09:04.791Z,24.39
2019-02-23T10:11:33.081Z,23.03
2019-02-23T10:14:04.045Z,22.26
2019-02-23T10:16:32.380Z,23.40
2019-02-23T10:19:00.645Z,22.54
2019-02-23T10:21:28.916Z,21.45
2019-02-23T10:23:57.191Z,22.19
2019-02-23T10:26:25.457Z,22.60
2019-02-23T10:28:53.772Z,22.17
2019-02-23T10:31:22.029Z,22.43
2019-02-23T10:33:50.306Z,21.49
2019-02-23T10:36:18.568Z,21.99
2019-02-23T10:38:46.850Z,21.55
2019-02-23T10:41:15.130Z,21.29
2019-02-23T10:43:43.445Z,20.52
2019-02-23T10:46:12.216Z,19.77
2019-02-23T10:48:40.646Z,19.64
2019-02-23T10:51:08.924Z,19.47
2019-02-23T10:53:37.695Z,18.81
2019-02-23T10:56:06.051Z,19.88
2019-02-23T10:58:34.326Z,18.81
2019-02-23T11:01:02.764Z,18.84
2019-02-23T11:03:31.019Z,19.59
2019-02-23T11:05:59.295Z,18.92
2019-02-23T11:08:27.551Z,19.47
2019-02-23T11:10:55.842Z,19.84
2019-02-23T11:13:24.137Z,19.71
2019-02-23T11:15:52.408Z,19.75
2019-02-23T11:18:20.721Z,19.69
2019-02-23T11:20:48.981Z,20.52
2019-02-23T11:23:17.711Z,20.76
2019-02-23T11:25:45.996Z,20.52
2019-02-23T11:28:14.266Z,19.38
2019-02-23T11:30:42.572Z,20.31
2019-02-23T11:33:10.871Z,20.35
2019-02-23T11:35:39.130Z,20.30
2019-02-23T11:38:07.422Z,19.26
2019-02-23T11:40:35.678Z,19.40
2019-02-23T11:43:03.974Z,18.93
2019-02-23T11:45:32.262Z,19.42
2019-02-23T11:48:00.524Z,19.30
2019-02-23T11:50:28.786Z,19.36
2019-02-23T11:52:57.057Z,20.17
2019-02-23T11:55:25.343Z,20.39
2019-02-23T11:57:53.608Z,20.66
2019-02-23T12:00:21.917Z,21.39
2019-02-23T12:02:52.815Z,21.06
2019-02-23T12:05:20.173Z,21.58
2019-02-23T12:07:48.457Z,21.93
2019-02-23T12:10:16.995Z,22.14
2019-02-23T12:12:45.319Z,22.15
2019-02-23T12:15:13.590Z,22.50
2019-02-23T12:17:41.836Z,22.40
2019-02-23T12:20:11.072Z,23.45
2019-02-23T12:22:39.451Z,24.21
2019-02-23T12:25:08.136Z,24.77
2019-02-23T12:27:36.406Z,24.75
2019-02-23T12:30:07.242Z,24.94
2019-02-23T12:32:35.507Z,24.90
2019-02-23T12:35:03.786Z,25.02
2019-02-23T12:37:32.058Z,25.33
2019-02-23T12:40:00.339Z,25.39
2019-02-23T12:42:28.592Z,25.53
2019-02-23T12:44:56.860Z,25.00
2019-02-23T12:47:25.120Z,25.35
2019-02-23T12:49:53.387Z,25.65
2019-02-23T12:52:21.650Z,26.21
2019-02-23T12:54:49.915Z,26.48
2019-02-23T12:57:18.284Z,26.65
2019-02-23T12:59:46.540Z,27.12
2019-02-23T13:02:14.831Z,27.46
2019-02-23T13:04:43.091Z,27.66
2019-02-23T13:07:11.379Z,27.49
2019-02-23T13:09:40.783Z,28.30
2019-02-23T13:12:18.433Z,27.88
2019-02-23T13:14:55.972Z,28.18
2019-02-23T13:17:54.709Z,27.90
2019-02-23T13:20:51.907Z,28.44
2019-02-23T13:23:56.992Z,28.73
2019-02-23T13:26:37.697Z,28.54
2019-02-23T13:29:33.625Z,28.97
2019-02-23T13:32:13.782Z,28.97
2019-02-23T13:34:57.329Z,29.88
2019-02-23T13:37:41.071Z,30.23
2019-02-23T13:40:33.603Z,30.04
2019-02-23T13:43:16.889Z,30.20
2019-02-23T13:46:04.913Z,30.13
2019-02-23T13:48:54.275Z,31.38
2019-02-23T13:51:43.658Z,30.94
2019-02-23T13:54:27.036Z,31.95
2019-02-23T13:57:01.314Z,32.75
2019-02-23T13:59:44.305Z,33.42
2019-02-23T14:02:33.889Z,33.00
2019-02-23T14:05:35.493Z,32.38
2019-02-23T14:08:38.709Z,32.31
2019-02-23T14:11:18.700Z,33.22
2019-02-23T14:13:52.991Z,32.84
2019-02-23T14:16:43.651Z,32.74
2019-02-23T14:19:21.050Z,33.49
2019-02-23T14:22:07.375Z,33.70
2019-02-23T14:24:49.840Z,34.21
2019-02-23T14:27:26.117Z,34.43
2019-02-23T14:30:00.350Z,34.03
2019-02-23T14:32:48.615Z,34.84
2019-02-23T14:35:20.128Z,34.93
2019-02-23T14:38:03.483Z,35.08
2019-02-23T14:41:00.412Z,35.16
2019-02-23T14:43:47.998Z,35.42
2019-02-23T14:46:22.204Z,35.59
2019-02-23T14:49:10.117Z,36.29
2019-02-23T14:51:47.298Z,36.80
2019-02-23T14:54:33.794Z,37.36
2019-02-23T14:57:05.349Z,37.27
2019-02-23T14:59:45.722Z,37.83
2019-02-23T15:02:29.370Z,38.50
2019-02-23T15:05:23.551Z,38.31
2019-02-23T15:08:17.590Z,38.63
2019-02-23T15:11:05.781Z,39.19
2019-02-23T15:13:43.077Z,38.68
2019-02-23T15:16:48.071Z,38.47
2019-02-23T15:19:22.344Z,38.65
2019-02-23T15:22:05.908Z,38.73
2019-02-23T15:24:43.069Z,39.43
2019-02-23T15:27:26.544Z,38.89
2019-02-23T15:29:58.070Z,39.60
2019-02-23T15:33:01.549Z,39.55
2019-02-23T15:35:48.116Z,39.70
2019-02-23T15:38:42.384Z,40.48
2019-02-23T15:41:16.791Z,40.34
2019-02-23T15:43:54.584Z,40.72
2019-02-23T15:46:58.328Z,41.24
2019-02-23T15:49:30.548Z,41.54
2019-02-23T15:51:59.641Z,42.55
2019-02-23T15:54:29.223Z,42.14
2019-02-23T15:56:57.677Z,42.80
2019-02-23T15:59:25.942Z,43.10
2019-02-23T16:01:54.224Z,42.91
2019-02-23T16:04:22.487Z,43.49
2019-02-23T16:06:50.764Z,43.44
2019-02-23T16:09:19.026Z,43.66
2019-02-23T16:11:47.291Z,44.32
2019-02-23T16:14:15.586Z,44.12
2019-02-23T16:16:43.850Z,45.65
2019-02-23T16:19:12.152Z,43.81
2019-02-23T16:21:40.402Z,43.50
2019-02-23T16:24:08.696Z,43.62
2019-02-23T16:26:36.970Z,43.54
2019-02-23T16:29:05.263Z,43.33
2019-02-23T16:31:33.521Z,43.45
2019-02-23T16:34:01.923Z,44.26
2019-02-23T16:36:30.216Z,44.88
2019-02-23T16:38:58.478Z,44.68
2019-02-23T16:41:26.745Z,46.02
2019-02-23T16:43:55.053Z,45.54
2019-02-23T16:46:23.273Z,45.75
2019-02-23T16:48:51.532Z,45.95
2019-02-23T16:51:19.836Z,45.39
2019-02-23T16:53:49.082Z,45.36
2019-02-23T16:56:17.448Z,46.31
2019-02-23T16:58:45.742Z,45.46
2019-02-23T17:01:13.992Z,45.82
2019-02-23T17:03:42.515Z,46.10
2019-02-23T17:06:10.729Z,47.49
2019-02-23T17:08:38.983Z,47.28
2019-02-23T17:11:07.278Z,47.91
2019-02-23T17:13:35.536Z,47.10
2019-02-23T17:16:03.826Z,47.99
2019-02-23T17:18:32.090Z,47.70
2019-02-23T17:21:00.497Z,49.24
2019-02-23T17:23:28.703Z,48.68
2019-02-23T17:26:04.253Z,49.78
2019-02-23T17:28:27.021Z,49.45
2019-02-23T17:30:55.280Z,49.93
2019-02-23T17:33:23.545Z,49.46
2019-02-23T17:35:52.723Z,48.75
2019-02-23T17:38:21.100Z,48.98
2019-02-23T17:40:49.385Z,49.01
2019-02-23T17:43:17.744Z,49.33
2019-02-23T17:45:45.999Z,48.86
2019-02-23T17:48:14.276Z,48.91
2019-02-23T17:50:42.547Z,48.98
2019-02-23T17:53:10.820Z,48.75
2019-02-23T17:55:39.077Z,49.08
2019-02-23T17:58:07.333Z,49.53
2019-02-23T18:00:35.707Z,50.81
2019-02-23T18:03:03.976Z,51.04
2019-02-23T18:05:32.232Z,51.73
2019-02-23T18:08:00.510Z,51.75
2019-02-23T18:10:28.814Z,52.14
2019-02-23T18:12:57.078Z,51.24
2019-02-23T18:15:25.339Z,51.91
2019-02-23T18:17:53.614Z,52.38
2019-02-23T18:20:21.912Z,51.44
2019-02-23T18:22:50.354Z,51.63
2019-02-23T18:25:19.812Z,52.42
2019-02-23T18:27:48.337Z,51.40
2019-02-23T18:30:17.081Z,53.30
2019-02-23T18:32:46.947Z,53.62
2019-02-23T18:35:15.345Z,52.92
2019-02-23T18:37:45.749Z,53.02
2019-02-23T18:40:15.010Z,53.68
2019-02-23T18:42:43.649Z,53.58
2019-02-23T18:45:12.208Z,55.03
2019-02-23T18:47:41.957Z,54.71
2019-02-23T18:50:10.548Z,55.47
2019-02-23T18:52:39.257Z,55.35
2019-02-23T18:55:08.149Z,56.75
2019-02-23T18:57:36.439Z,56.63
2019-02-23T19:00:08.806Z,55.11
2019-02-23T19:02:37.201Z,55.56
2019-02-23T19:05:08.936Z,55.52
2019-02-23T19:07:37.185Z,55.94
2019-02-23T19:10:10.923Z,56.72
2019-02-23T19:12:39.187Z,56.83
2019-02-23T19:15:10.482Z,56.57
2019-02-23T19:17:38.742Z,56.17
2019-02-23T19:20:12.291Z,58.00
2019-02-23T19:22:40.560Z,59.93
2019-02-23T19:25:10.583Z,58.75
2019-02-23T19:27:38.879Z,59.00
2019-02-23T19:30:10.274Z,58.43
2019-02-23T19:32:38.542Z,59.01
2019-02-23T19:35:07.659Z,59.52
2019-02-23T19:37:35.976Z,59.86
2019-02-23T19:40:06.083Z,60.04
2019-02-23T19:42:34.383Z,59.14
2019-02-23T19:45:02.656Z,58.99
2019-02-23T19:47:31.476Z,58.51
2019-02-23T19:50:01.106Z,58.25
2019-02-23T19:52:29.369Z,58.29
2019-02-23T19:54:57.674Z,58.97
2019-02-23T19:57:25.928Z,58.79
2019-02-23T19:59:54.204Z,58.68
2019-02-23T20:02:22.498Z,59.16
2019-02-23T20:04:50.785Z,58.79
2019-02-23T20:07:19.062Z,59.38
2019-02-23T20:09:47.346Z,59.91
2019-02-23T20:12:15.605Z,60.33
2019-02-23T20:14:43.900Z,60.63
2019-02-23T20:17:12.162Z,61.06
2019-02-23T20:19:40.463Z,59.71
2019-02-23T20:22:08.717Z,61.13
2019-02-23T20:24:37.036Z,60.31
2019-02-23T20:27:05.302Z,60.77
2019-02-23T20:29:33.609Z,60.85
2019-02-23T20:32:01.896Z,61.71
2019-02-23T20:34:30.152Z,60.71
2019-02-23T20:36:58.452Z,60.90
2019-02-23T20:39:26.706Z,60.08
2019-02-23T20:41:54.978Z,59.74
2019-02-23T20:44:23.256Z,59.88
2019-02-23T20:46:51.535Z,60.27
2019-02-23T20:49:19.841Z,61.04
2019-02-23T20:51:48.173Z,59.93
2019-02-23T20:54:16.539Z,60.15
2019-02-23T20:56:44.799Z,59.74
2019-02-23T20:59:13.078Z,59.87
2019-02-23T21:01:41.363Z,60.22
2019-02-23T21:04:09.630Z,59.86
2019-02-23T21:06:37.972Z,61.15
2019-02-23T21:09:06.274Z,61.33
2019-02-23T21:11:34.540Z,60.28
2019-02-23T21:14:02.992Z,60.76
2019-02-23T21:16:31.376Z,60.85
2019-02-23T21:18:59.642Z,59.64
2019-02-23T21:21:28.036Z,59.59
2019-02-23T21:23:56.299Z,59.23
2019-02-23T21:26:24.568Z,58.99
2019-02-23T21:28:54.900Z,59.51
2019-02-23T21:31:23.275Z,59.85
2019-02-23T21:33:51.573Z,60.88
2019-02-23T21:36:19.834Z,59.78
2019-02-23T21:38:48.165Z,61.24
2019-02-23T21:41:16.424Z,60.54
2019-02-23T21:43:44.754Z,60.95
2019-02-23T21:46:14.010Z,60.23
2019-02-23T21:48:42.427Z,59.70
2019-02-23T21:51:10.687Z,59.38
2019-02-23T21:53:39.004Z,59.08
2019-02-23T21:56:07.242Z,60.61
2019-02-23T21:58:35.558Z,61.56
2019-02-23T22:01:03.830Z,61.10
2019-02-23T22:03:32.089Z,61.65
2019-02-23T22:06:00.384Z,61.23
2019-02-23T22:08:28.662Z,61.81
2019-02-23T22:10:56.968Z,60.89
2019-02-23T22:13:25.233Z,61.00
2019-02-23T22:15:53.529Z,60.16
2019-02-23T22:18:21.793Z,60.06
2019-02-23T22:20:50.277Z,59.83
2019-02-23T22:23:18.521Z,59.73
2019-02-23T22:25:46.827Z,61.23
2019-02-23T22:28:15.119Z,62.29
2019-02-23T22:30:43.378Z,61.17
2019-02-23T22:33:11.655Z,60.65
2019-02-23T22:35:39.952Z,59.93
2019-02-23T22:38:08.270Z,61.06
2019-02-23T22:40:36.593Z,61.28
2019-02-23T22:43:04.859Z,61.92
2019-02-23T22:45:33.141Z,61.34
2019-02-23T22:48:01.434Z,60.86
2019-02-23T22:50:29.728Z,60.32
2019-02-23T22:52:57.997Z,61.33
2019-02-23T22:55:26.380Z,61.12
2019-02-23T22:57:54.649Z,60.97
2019-02-23T23:00:24.633Z,61.51
2019-02-23T23:02:53.002Z,61.48
2019-02-23T23:05:21.268Z,61.39
2019-02-23T23:07:49.533Z,61.50
2019-02-23T23:10:17.837Z,61.59
2019-02-23T23:12:46.187Z,61.70
2019-02-23T23:15:14.450Z,61.65
2019-02-23T23:17:42.745Z,61.23
2019-02-23T23:20:11.076Z,61.45
2019-02-23T23:22:39.342Z,62.43
2019-02-23T23:25:07.776Z,61.84
2019-02-23T23:27:36.273Z,61.93
2019-02-23T23:30:06.576Z,61.79
2019-02-23T23:32:34.867Z,62.09
2019-02-23T23:35:03.128Z,62.50
2019-02-23T23:37:31.431Z,62.67
2019-02-23T23:39:59.694Z,62.64
2019-02-23T23:42:27.956Z,63.21
2019-02-23T23:44:56.236Z,63.34
2019-02-23T23:47:24.799Z,63.49
2019-02-23T23:49:53.066Z,63.15
2019-02-23T23:52:21.331Z,63.23
2019-02-23T23:54:49.597Z,62.78
2019-02-23T23:57:17.915Z,62.08
2019-02-23T23:59:46.200Z,61.72
